sensor_id;sensor_type;location;lat;lon;timestamp;P1;durP1;ratioP1;P2;durP2;ratioP2
13234;SDS011;6683;48.506;9.050;2023-07-29T00:02:11;1.70;;;1.53;;
13234;SDS011;6683;48.506;9.050;2023-07-29T00:05:14;1.50;;;1.40;;
13234;SDS011;6683;48.506;9.050;2023-07-29T00:08:18;1.70;;;1.60;;
13234;SDS011;6683;48.506;9.050;2023-07-29T00:11:20;2.93;;;1.60;;
13234;SDS011;6683;48.506;9.050;2023-07-29T00:14:22;2.40;;;1.40;;
13234;SDS011;6683;48.506;9.050;2023-07-29T00:17:24;1.67;;;1.27;;
13234;SDS011;6683;48.506;9.050;2023-07-29T00:20:27;1.30;;;1.20;;
13234;SDS011;6683;48.506;9.050;2023-07-29T00:23:31;1.77;;;1.13;;
13234;SDS011;6683;48.506;9.050;2023-07-29T00:26:33;1.60;;;1.37;;
13234;SDS011;6683;48.506;9.050;2023-07-29T00:29:35;1.40;;;1.30;;
13234;SDS011;6683;48.506;9.050;2023-07-29T00:32:37;2.17;;;1.37;;
13234;SDS011;6683;48.506;9.050;2023-07-29T00:35:40;1.87;;;1.37;;
13234;SDS011;6683;48.506;9.050;2023-07-29T00:38:44;4.20;;;1.40;;
13234;SDS011;6683;48.506;9.050;2023-07-29T00:41:46;2.33;;;1.57;;
13234;SDS011;6683;48.506;9.050;2023-07-29T00:44:48;3.83;;;1.47;;
13234;SDS011;6683;48.506;9.050;2023-07-29T00:47:50;3.47;;;1.93;;
13234;SDS011;6683;48.506;9.050;2023-07-29T00:50:53;12.67;;;2.10;;
13234;SDS011;6683;48.506;9.050;2023-07-29T00:53:57;4.67;;;2.10;;
13234;SDS011;6683;48.506;9.050;2023-07-29T00:57:00;8.30;;;2.40;;
13234;SDS011;6683;48.506;9.050;2023-07-29T01:00:03;7.47;;;2.27;;
13234;SDS011;6683;48.506;9.050;2023-07-29T01:03:08;7.23;;;2.30;;
13234;SDS011;6683;48.506;9.050;2023-07-29T01:06:12;2.83;;;1.60;;
13234;SDS011;6683;48.506;9.050;2023-07-29T01:09:28;10.50;;;2.40;;
13234;SDS011;6683;48.506;9.050;2023-07-29T01:12:42;4.33;;;2.03;;
13234;SDS011;6683;48.506;9.050;2023-07-29T01:15:53;6.73;;;1.90;;
13234;SDS011;6683;48.506;9.050;2023-07-29T01:19:00;11.73;;;2.50;;
13234;SDS011;6683;48.506;9.050;2023-07-29T01:22:08;4.43;;;2.30;;
13234;SDS011;6683;48.506;9.050;2023-07-29T01:25:13;7.97;;;2.30;;
13234;SDS011;6683;48.506;9.050;2023-07-29T01:28:15;10.13;;;2.70;;
13234;SDS011;6683;48.506;9.050;2023-07-29T01:31:20;11.17;;;2.77;;
13234;SDS011;6683;48.506;9.050;2023-07-29T01:34:32;3.17;;;1.60;;
13234;SDS011;6683;48.506;9.050;2023-07-29T01:37:43;7.23;;;2.10;;
13234;SDS011;6683;48.506;9.050;2023-07-29T01:40:51;16.67;;;2.77;;
13234;SDS011;6683;48.506;9.050;2023-07-29T01:43:55;5.60;;;2.30;;
13234;SDS011;6683;48.506;9.050;2023-07-29T01:46:59;9.43;;;2.53;;
13234;SDS011;6683;48.506;9.050;2023-07-29T01:50:01;12.30;;;2.40;;
13234;SDS011;6683;48.506;9.050;2023-07-29T01:53:04;7.27;;;2.00;;
13234;SDS011;6683;48.506;9.050;2023-07-29T01:56:07;4.10;;;2.30;;
13234;SDS011;6683;48.506;9.050;2023-07-29T01:59:09;2.60;;;2.20;;
13234;SDS011;6683;48.506;9.050;2023-07-29T02:02:13;2.87;;;2.37;;
13234;SDS011;6683;48.506;9.050;2023-07-29T02:05:15;3.87;;;2.43;;
13234;SDS011;6683;48.506;9.050;2023-07-29T02:08:18;2.37;;;1.87;;
13234;SDS011;6683;48.506;9.050;2023-07-29T02:11:21;4.03;;;2.27;;
13234;SDS011;6683;48.506;9.050;2023-07-29T02:14:27;4.47;;;2.23;;
13234;SDS011;6683;48.506;9.050;2023-07-29T02:17:30;2.37;;;2.17;;
13234;SDS011;6683;48.506;9.050;2023-07-29T02:20:32;2.47;;;2.20;;
13234;SDS011;6683;48.506;9.050;2023-07-29T02:23:34;3.70;;;1.87;;
13234;SDS011;6683;48.506;9.050;2023-07-29T02:26:37;6.47;;;1.77;;
13234;SDS011;6683;48.506;9.050;2023-07-29T02:29:40;21.00;;;2.53;;
13234;SDS011;6683;48.506;9.050;2023-07-29T02:32:42;2.90;;;1.60;;
13234;SDS011;6683;48.506;9.050;2023-07-29T02:35:44;8.40;;;1.70;;
13234;SDS011;6683;48.506;9.050;2023-07-29T02:38:46;10.67;;;2.10;;
13234;SDS011;6683;48.506;9.050;2023-07-29T02:41:50;16.93;;;2.00;;
13234;SDS011;6683;48.506;9.050;2023-07-29T02:44:52;20.50;;;2.30;;
13234;SDS011;6683;48.506;9.050;2023-07-29T02:47:54;8.07;;;1.80;;
13234;SDS011;6683;48.506;9.050;2023-07-29T02:50:56;4.53;;;1.90;;
13234;SDS011;6683;48.506;9.050;2023-07-29T02:53:59;1.60;;;1.50;;
13234;SDS011;6683;48.506;9.050;2023-07-29T02:57:02;1.70;;;1.60;;
13234;SDS011;6683;48.506;9.050;2023-07-29T03:00:05;1.70;;;1.60;;
13234;SDS011;6683;48.506;9.050;2023-07-29T03:03:10;1.60;;;1.50;;
13234;SDS011;6683;48.506;9.050;2023-07-29T03:06:13;4.50;;;1.87;;
13234;SDS011;6683;48.506;9.050;2023-07-29T03:09:16;4.57;;;2.10;;
13234;SDS011;6683;48.506;9.050;2023-07-29T03:12:20;2.20;;;1.90;;
13234;SDS011;6683;48.506;9.050;2023-07-29T03:15:23;2.57;;;1.80;;
13234;SDS011;6683;48.506;9.050;2023-07-29T03:18:25;1.60;;;1.50;;
13234;SDS011;6683;48.506;9.050;2023-07-29T03:21:27;1.30;;;1.20;;
13234;SDS011;6683;48.506;9.050;2023-07-29T03:24:29;1.23;;;1.03;;
13234;SDS011;6683;48.506;9.050;2023-07-29T03:27:33;3.63;;;1.80;;
13234;SDS011;6683;48.506;9.050;2023-07-29T03:30:36;1.70;;;1.60;;
13234;SDS011;6683;48.506;9.050;2023-07-29T03:33:38;1.80;;;1.63;;
13234;SDS011;6683;48.506;9.050;2023-07-29T03:36:40;1.70;;;1.60;;
13234;SDS011;6683;48.506;9.050;2023-07-29T03:39:42;2.50;;;2.27;;
13234;SDS011;6683;48.506;9.050;2023-07-29T03:42:46;2.30;;;2.10;;
13234;SDS011;6683;48.506;9.050;2023-07-29T03:45:48;2.07;;;1.80;;
13234;SDS011;6683;48.506;9.050;2023-07-29T03:48:50;1.90;;;1.80;;
13234;SDS011;6683;48.506;9.050;2023-07-29T03:51:53;2.40;;;1.73;;
13234;SDS011;6683;48.506;9.050;2023-07-29T03:54:55;2.00;;;1.90;;
13234;SDS011;6683;48.506;9.050;2023-07-29T03:57:59;1.97;;;1.50;;
13234;SDS011;6683;48.506;9.050;2023-07-29T04:01:02;3.27;;;1.60;;
13234;SDS011;6683;48.506;9.050;2023-07-29T04:04:04;3.20;;;1.93;;
13234;SDS011;6683;48.506;9.050;2023-07-29T04:07:06;2.10;;;2.00;;
13234;SDS011;6683;48.506;9.050;2023-07-29T04:10:08;1.90;;;1.73;;
13234;SDS011;6683;48.506;9.050;2023-07-29T04:13:12;2.63;;;1.90;;
13234;SDS011;6683;48.506;9.050;2023-07-29T04:16:15;2.40;;;2.20;;
13234;SDS011;6683;48.506;9.050;2023-07-29T04:19:17;1.90;;;1.80;;
13234;SDS011;6683;48.506;9.050;2023-07-29T04:22:20;1.90;;;1.73;;
13234;SDS011;6683;48.506;9.050;2023-07-29T04:25:22;1.90;;;1.80;;
13234;SDS011;6683;48.506;9.050;2023-07-29T04:28:26;2.33;;;1.80;;
13234;SDS011;6683;48.506;9.050;2023-07-29T04:31:28;1.93;;;1.83;;
13234;SDS011;6683;48.506;9.050;2023-07-29T04:34:31;2.83;;;2.00;;
13234;SDS011;6683;48.506;9.050;2023-07-29T04:37:33;2.20;;;2.00;;
13234;SDS011;6683;48.506;9.050;2023-07-29T04:40:35;2.80;;;2.60;;
13234;SDS011;6683;48.506;9.050;2023-07-29T04:43:39;2.57;;;2.20;;
13234;SDS011;6683;48.506;9.050;2023-07-29T04:46:41;4.13;;;2.43;;
13234;SDS011;6683;48.506;9.050;2023-07-29T04:49:43;2.43;;;2.23;;
13234;SDS011;6683;48.506;9.050;2023-07-29T04:52:46;3.30;;;2.33;;
13234;SDS011;6683;48.506;9.050;2023-07-29T04:55:48;2.40;;;2.20;;
13234;SDS011;6683;48.506;9.050;2023-07-29T04:58:52;2.40;;;1.87;;
13234;SDS011;6683;48.506;9.050;2023-07-29T05:01:54;2.37;;;2.07;;
13234;SDS011;6683;48.506;9.050;2023-07-29T05:04:56;1.70;;;1.50;;
13234;SDS011;6683;48.506;9.050;2023-07-29T05:07:58;2.00;;;1.80;;
13234;SDS011;6683;48.506;9.050;2023-07-29T05:11:00;2.37;;;1.97;;
13234;SDS011;6683;48.506;9.050;2023-07-29T05:14:04;2.57;;;2.20;;
13234;SDS011;6683;48.506;9.050;2023-07-29T05:17:07;2.27;;;2.07;;
13234;SDS011;6683;48.506;9.050;2023-07-29T05:20:09;2.47;;;2.00;;
13234;SDS011;6683;48.506;9.050;2023-07-29T05:23:11;2.97;;;1.87;;
13234;SDS011;6683;48.506;9.050;2023-07-29T05:26:13;2.40;;;2.20;;
13234;SDS011;6683;48.506;9.050;2023-07-29T05:29:17;2.03;;;1.80;;
13234;SDS011;6683;48.506;9.050;2023-07-29T05:32:19;2.63;;;1.87;;
13234;SDS011;6683;48.506;9.050;2023-07-29T05:35:21;2.20;;;2.00;;
13234;SDS011;6683;48.506;9.050;2023-07-29T05:38:23;1.70;;;1.60;;
13234;SDS011;6683;48.506;9.050;2023-07-29T05:41:25;2.20;;;2.00;;
13234;SDS011;6683;48.506;9.050;2023-07-29T05:44:30;2.50;;;2.13;;
13234;SDS011;6683;48.506;9.050;2023-07-29T05:47:32;1.90;;;1.80;;
13234;SDS011;6683;48.506;9.050;2023-07-29T05:50:34;2.50;;;1.90;;
13234;SDS011;6683;48.506;9.050;2023-07-29T05:53:36;2.00;;;1.50;;
13234;SDS011;6683;48.506;9.050;2023-07-29T05:56:39;1.80;;;1.70;;
13234;SDS011;6683;48.506;9.050;2023-07-29T05:59:43;1.77;;;1.40;;
13234;SDS011;6683;48.506;9.050;2023-07-29T06:02:45;2.67;;;1.60;;
13234;SDS011;6683;48.506;9.050;2023-07-29T06:05:48;1.50;;;1.40;;
13234;SDS011;6683;48.506;9.050;2023-07-29T06:08:51;1.50;;;1.40;;
13234;SDS011;6683;48.506;9.050;2023-07-29T06:11:53;1.60;;;1.43;;
13234;SDS011;6683;48.506;9.050;2023-07-29T06:14:56;1.67;;;1.27;;
13234;SDS011;6683;48.506;9.050;2023-07-29T06:17:59;1.60;;;1.40;;
13234;SDS011;6683;48.506;9.050;2023-07-29T06:21:01;1.93;;;1.30;;
13234;SDS011;6683;48.506;9.050;2023-07-29T06:24:07;4.37;;;1.43;;
13234;SDS011;6683;48.506;9.050;2023-07-29T06:27:09;1.60;;;1.30;;
13234;SDS011;6683;48.506;9.050;2023-07-29T06:30:13;2.97;;;1.40;;
13234;SDS011;6683;48.506;9.050;2023-07-29T06:33:15;1.53;;;1.43;;
13234;SDS011;6683;48.506;9.050;2023-07-29T06:36:17;2.03;;;1.53;;
13234;SDS011;6683;48.506;9.050;2023-07-29T06:39:19;5.17;;;1.60;;
13234;SDS011;6683;48.506;9.050;2023-07-29T06:42:21;1.57;;;1.47;;
13234;SDS011;6683;48.506;9.050;2023-07-29T06:45:25;1.80;;;1.40;;
13234;SDS011;6683;48.506;9.050;2023-07-29T06:48:27;1.63;;;1.53;;
13234;SDS011;6683;48.506;9.050;2023-07-29T06:51:30;1.87;;;1.67;;
13234;SDS011;6683;48.506;9.050;2023-07-29T06:54:34;1.60;;;1.50;;
13234;SDS011;6683;48.506;9.050;2023-07-29T06:57:36;3.03;;;1.63;;
13234;SDS011;6683;48.506;9.050;2023-07-29T07:00:40;2.70;;;1.97;;
13234;SDS011;6683;48.506;9.050;2023-07-29T07:03:42;3.83;;;1.63;;
13234;SDS011;6683;48.506;9.050;2023-07-29T07:06:44;2.97;;;2.00;;
13234;SDS011;6683;48.506;9.050;2023-07-29T07:09:46;2.07;;;1.87;;
13234;SDS011;6683;48.506;9.050;2023-07-29T07:12:49;1.83;;;1.73;;
13234;SDS011;6683;48.506;9.050;2023-07-29T07:15:55;3.00;;;1.80;;
13234;SDS011;6683;48.506;9.050;2023-07-29T07:18:57;2.77;;;1.87;;
13234;SDS011;6683;48.506;9.050;2023-07-29T07:21:59;3.20;;;2.10;;
13234;SDS011;6683;48.506;9.050;2023-07-29T07:25:01;2.33;;;2.03;;
13234;SDS011;6683;48.506;9.050;2023-07-29T07:28:04;2.87;;;2.00;;
13234;SDS011;6683;48.506;9.050;2023-07-29T07:31:08;2.67;;;1.70;;
13234;SDS011;6683;48.506;9.050;2023-07-29T07:34:10;2.83;;;2.63;;
13234;SDS011;6683;48.506;9.050;2023-07-29T07:37:12;3.37;;;2.07;;
13234;SDS011;6683;48.506;9.050;2023-07-29T07:40:15;1.90;;;1.80;;
13234;SDS011;6683;48.506;9.050;2023-07-29T07:43:17;2.27;;;2.07;;
13234;SDS011;6683;48.506;9.050;2023-07-29T07:46:21;2.00;;;1.80;;
13234;SDS011;6683;48.506;9.050;2023-07-29T07:49:23;2.53;;;2.20;;
13234;SDS011;6683;48.506;9.050;2023-07-29T07:52:25;2.53;;;2.13;;
13234;SDS011;6683;48.506;9.050;2023-07-29T07:55:28;3.97;;;2.40;;
13234;SDS011;6683;48.506;9.050;2023-07-29T07:58:31;4.47;;;2.13;;
13234;SDS011;6683;48.506;9.050;2023-07-29T08:01:35;2.20;;;2.00;;
13234;SDS011;6683;48.506;9.050;2023-07-29T08:04:38;2.77;;;2.00;;
13234;SDS011;6683;48.506;9.050;2023-07-29T08:07:40;2.63;;;2.00;;
13234;SDS011;6683;48.506;9.050;2023-07-29T08:10:42;1.83;;;1.73;;
13234;SDS011;6683;48.506;9.050;2023-07-29T08:13:45;2.00;;;1.80;;
13234;SDS011;6683;48.506;9.050;2023-07-29T08:16:48;2.57;;;1.87;;
13234;SDS011;6683;48.506;9.050;2023-07-29T08:19:51;2.33;;;1.80;;
13234;SDS011;6683;48.506;9.050;2023-07-29T08:22:53;2.50;;;2.20;;
13234;SDS011;6683;48.506;9.050;2023-07-29T08:25:56;2.60;;;2.20;;
13234;SDS011;6683;48.506;9.050;2023-07-29T08:29:01;2.27;;;2.00;;
13234;SDS011;6683;48.506;9.050;2023-07-29T08:32:05;2.07;;;1.87;;
13234;SDS011;6683;48.506;9.050;2023-07-29T08:35:08;2.33;;;2.00;;
13234;SDS011;6683;48.506;9.050;2023-07-29T08:38:10;4.53;;;2.63;;
13234;SDS011;6683;48.506;9.050;2023-07-29T08:41:13;2.40;;;2.00;;
13234;SDS011;6683;48.506;9.050;2023-07-29T08:44:20;2.10;;;1.90;;
13234;SDS011;6683;48.506;9.050;2023-07-29T08:47:26;3.60;;;1.90;;
13234;SDS011;6683;48.506;9.050;2023-07-29T08:50:29;2.23;;;1.90;;
13234;SDS011;6683;48.506;9.050;2023-07-29T08:53:33;1.70;;;1.53;;
13234;SDS011;6683;48.506;9.050;2023-07-29T08:56:36;2.17;;;1.77;;
13234;SDS011;6683;48.506;9.050;2023-07-29T08:59:39;2.00;;;1.80;;
13234;SDS011;6683;48.506;9.050;2023-07-29T09:02:44;1.90;;;1.63;;
13234;SDS011;6683;48.506;9.050;2023-07-29T09:05:46;1.97;;;1.60;;
13234;SDS011;6683;48.506;9.050;2023-07-29T09:08:49;1.83;;;1.50;;
13234;SDS011;6683;48.506;9.050;2023-07-29T09:11:52;1.97;;;1.80;;
13234;SDS011;6683;48.506;9.050;2023-07-29T09:14:55;3.78;;;2.00;;
13234;SDS011;6683;48.506;9.050;2023-07-29T09:17:58;1.95;;;1.77;;
13234;SDS011;6683;48.506;9.050;2023-07-29T09:21:09;2.85;;;1.83;;
13234;SDS011;6683;48.506;9.050;2023-07-29T09:24:12;3.88;;;2.20;;
13234;SDS011;6683;48.506;9.050;2023-07-29T09:27:24;2.25;;;2.05;;
13234;SDS011;6683;48.506;9.050;2023-07-29T09:30:27;2.30;;;1.85;;
13234;SDS011;6683;48.506;9.050;2023-07-29T09:33:32;2.30;;;2.03;;
13234;SDS011;6683;48.506;9.050;2023-07-29T09:36:36;2.85;;;2.35;;
13234;SDS011;6683;48.506;9.050;2023-07-29T09:39:39;2.67;;;2.10;;
13234;SDS011;6683;48.506;9.050;2023-07-29T09:42:47;2.85;;;1.80;;
13234;SDS011;6683;48.506;9.050;2023-07-29T09:45:51;2.20;;;1.83;;
13234;SDS011;6683;48.506;9.050;2023-07-29T09:48:55;2.53;;;1.90;;
13234;SDS011;6683;48.506;9.050;2023-07-29T09:51:58;2.35;;;2.15;;
13234;SDS011;6683;48.506;9.050;2023-07-29T09:55:03;2.05;;;1.85;;
13234;SDS011;6683;48.506;9.050;2023-07-29T09:58:07;1.52;;;1.42;;
13234;SDS011;6683;48.506;9.050;2023-07-29T10:01:10;2.22;;;1.92;;
13234;SDS011;6683;48.506;9.050;2023-07-29T10:04:14;1.80;;;1.70;;
13234;SDS011;6683;48.506;9.050;2023-07-29T10:07:17;2.45;;;1.80;;
13234;SDS011;6683;48.506;9.050;2023-07-29T10:10:19;1.90;;;1.80;;
13234;SDS011;6683;48.506;9.050;2023-07-29T10:13:22;2.08;;;1.88;;
13234;SDS011;6683;48.506;9.050;2023-07-29T10:16:27;1.88;;;1.77;;
13234;SDS011;6683;48.506;9.050;2023-07-29T10:19:31;2.55;;;1.70;;
13234;SDS011;6683;48.506;9.050;2023-07-29T10:22:36;1.88;;;1.77;;
13234;SDS011;6683;48.506;9.050;2023-07-29T10:25:43;2.17;;;1.98;;
13234;SDS011;6683;48.506;9.050;2023-07-29T10:28:48;1.85;;;1.60;;
13234;SDS011;6683;48.506;9.050;2023-07-29T10:32:00;1.60;;;1.50;;
13234;SDS011;6683;48.506;9.050;2023-07-29T10:35:07;2.13;;;1.90;;
13234;SDS011;6683;48.506;9.050;2023-07-29T10:38:09;2.00;;;1.70;;
13234;SDS011;6683;48.506;9.050;2023-07-29T10:41:12;1.83;;;1.48;;
13234;SDS011;6683;48.506;9.050;2023-07-29T10:47:50;1.85;;;1.73;;
13234;SDS011;6683;48.506;9.050;2023-07-29T10:50:57;1.75;;;1.50;;
13234;SDS011;6683;48.506;9.050;2023-07-29T10:54:26;1.67;;;1.58;;
13234;SDS011;6683;48.506;9.050;2023-07-29T10:57:32;1.73;;;1.48;;
13234;SDS011;6683;48.506;9.050;2023-07-29T11:00:36;2.17;;;1.70;;
13234;SDS011;6683;48.506;9.050;2023-07-29T11:03:39;1.80;;;1.45;;
13234;SDS011;6683;48.506;9.050;2023-07-29T11:10:26;1.50;;;1.40;;
13234;SDS011;6683;48.506;9.050;2023-07-29T11:13:29;4.20;;;1.90;;
13234;SDS011;6683;48.506;9.050;2023-07-29T11:16:32;1.65;;;1.55;;
13234;SDS011;6683;48.506;9.050;2023-07-29T11:19:35;1.70;;;1.60;;
13234;SDS011;6683;48.506;9.050;2023-07-29T11:22:41;1.63;;;1.52;;
13234;SDS011;6683;48.506;9.050;2023-07-29T11:25:44;2.30;;;1.50;;
13234;SDS011;6683;48.506;9.050;2023-07-29T11:28:46;4.47;;;1.50;;
13234;SDS011;6683;48.506;9.050;2023-07-29T11:31:49;1.67;;;1.58;;
13234;SDS011;6683;48.506;9.050;2023-07-29T11:34:53;1.60;;;1.50;;
13234;SDS011;6683;48.506;9.050;2023-07-29T11:37:56;2.35;;;1.40;;
13234;SDS011;6683;48.506;9.050;2023-07-29T11:40:58;2.10;;;1.42;;
13234;SDS011;6683;48.506;9.050;2023-07-29T11:44:03;1.70;;;1.60;;
13234;SDS011;6683;48.506;9.050;2023-07-29T11:47:11;1.33;;;1.23;;
13234;SDS011;6683;48.506;9.050;2023-07-29T11:50:14;1.50;;;1.40;;
13234;SDS011;6683;48.506;9.050;2023-07-29T11:53:18;1.40;;;1.30;;
13234;SDS011;6683;48.506;9.050;2023-07-29T11:56:20;2.05;;;1.33;;
13234;SDS011;6683;48.506;9.050;2023-07-29T11:59:23;1.52;;;1.42;;
13234;SDS011;6683;48.506;9.050;2023-07-29T12:02:25;1.70;;;1.60;;
13234;SDS011;6683;48.506;9.050;2023-07-29T12:05:28;1.70;;;1.45;;
13234;SDS011;6683;48.506;9.050;2023-07-29T12:08:33;1.50;;;1.40;;
13234;SDS011;6683;48.506;9.050;2023-07-29T12:11:35;1.15;;;1.05;;
13234;SDS011;6683;48.506;9.050;2023-07-29T12:14:42;1.83;;;1.42;;
13234;SDS011;6683;48.506;9.050;2023-07-29T12:17:47;1.40;;;1.25;;
13234;SDS011;6683;48.506;9.050;2023-07-29T12:20:49;2.88;;;1.45;;
13234;SDS011;6683;48.506;9.050;2023-07-29T12:23:53;1.30;;;1.20;;
13234;SDS011;6683;48.506;9.050;2023-07-29T12:26:55;1.42;;;1.33;;
13234;SDS011;6683;48.506;9.050;2023-07-29T12:29:57;1.40;;;1.30;;
13234;SDS011;6683;48.506;9.050;2023-07-29T12:33:03;1.58;;;1.48;;
13234;SDS011;6683;48.506;9.050;2023-07-29T12:36:06;2.75;;;1.20;;
13234;SDS011;6683;48.506;9.050;2023-07-29T12:39:16;1.92;;;1.77;;
13234;SDS011;6683;48.506;9.050;2023-07-29T12:42:20;1.40;;;1.30;;
13234;SDS011;6683;48.506;9.050;2023-07-29T12:45:22;1.40;;;1.30;;
13234;SDS011;6683;48.506;9.050;2023-07-29T12:48:26;1.92;;;1.30;;
13234;SDS011;6683;48.506;9.050;2023-07-29T12:51:29;1.35;;;1.25;;
13234;SDS011;6683;48.506;9.050;2023-07-29T12:54:32;2.17;;;1.50;;
13234;SDS011;6683;48.506;9.050;2023-07-29T12:57:35;2.15;;;1.40;;
13234;SDS011;6683;48.506;9.050;2023-07-29T13:00:37;1.60;;;1.50;;
13234;SDS011;6683;48.506;9.050;2023-07-29T13:03:39;1.50;;;1.40;;
13234;SDS011;6683;48.506;9.050;2023-07-29T13:06:41;2.42;;;1.50;;
13234;SDS011;6683;48.506;9.050;2023-07-29T13:09:45;2.75;;;1.42;;
13234;SDS011;6683;48.506;9.050;2023-07-29T13:12:48;1.60;;;1.50;;
13234;SDS011;6683;48.506;9.050;2023-07-29T13:15:50;1.42;;;1.33;;
13234;SDS011;6683;48.506;9.050;2023-07-29T13:18:52;1.75;;;1.63;;
13234;SDS011;6683;48.506;9.050;2023-07-29T13:21:55;1.65;;;1.55;;
13234;SDS011;6683;48.506;9.050;2023-07-29T13:25:02;1.50;;;1.40;;
13234;SDS011;6683;48.506;9.050;2023-07-29T13:28:08;1.52;;;1.42;;
13234;SDS011;6683;48.506;9.050;2023-07-29T13:31:11;1.65;;;1.55;;
13234;SDS011;6683;48.506;9.050;2023-07-29T13:34:14;2.70;;;1.88;;
13234;SDS011;6683;48.506;9.050;2023-07-29T13:37:16;1.60;;;1.48;;
13234;SDS011;6683;48.506;9.050;2023-07-29T13:40:20;1.63;;;1.52;;
13234;SDS011;6683;48.506;9.050;2023-07-29T13:43:22;1.55;;;1.45;;
13234;SDS011;6683;48.506;9.050;2023-07-29T13:46:25;1.70;;;1.60;;
13234;SDS011;6683;48.506;9.050;2023-07-29T13:49:27;1.67;;;1.50;;
13234;SDS011;6683;48.506;9.050;2023-07-29T13:52:30;1.70;;;1.50;;
13234;SDS011;6683;48.506;9.050;2023-07-29T13:55:33;1.48;;;1.38;;
13234;SDS011;6683;48.506;9.050;2023-07-29T13:58:35;1.45;;;1.35;;
13234;SDS011;6683;48.506;9.050;2023-07-29T14:01:38;1.73;;;1.63;;
13234;SDS011;6683;48.506;9.050;2023-07-29T14:04:40;1.60;;;1.50;;
13234;SDS011;6683;48.506;9.050;2023-07-29T14:07:42;1.65;;;1.55;;
13234;SDS011;6683;48.506;9.050;2023-07-29T14:10:46;3.10;;;1.40;;
13234;SDS011;6683;48.506;9.050;2023-07-29T14:13:49;1.42;;;1.30;;
13234;SDS011;6683;48.506;9.050;2023-07-29T14:16:51;1.75;;;1.65;;
13234;SDS011;6683;48.506;9.050;2023-07-29T14:19:56;1.80;;;1.70;;
13234;SDS011;6683;48.506;9.050;2023-07-29T14:22:58;1.42;;;1.33;;
13234;SDS011;6683;48.506;9.050;2023-07-29T14:26:02;1.77;;;1.50;;
13234;SDS011;6683;48.506;9.050;2023-07-29T14:29:04;1.35;;;1.25;;
13234;SDS011;6683;48.506;9.050;2023-07-29T14:32:06;2.72;;;1.40;;
13234;SDS011;6683;48.506;9.050;2023-07-29T14:35:08;1.42;;;1.33;;
13234;SDS011;6683;48.506;9.050;2023-07-29T14:38:10;1.48;;;1.38;;
13234;SDS011;6683;48.506;9.050;2023-07-29T14:41:14;1.52;;;1.33;;
13234;SDS011;6683;48.506;9.050;2023-07-29T14:44:17;1.52;;;1.42;;
13234;SDS011;6683;48.506;9.050;2023-07-29T14:47:19;1.42;;;1.33;;
13234;SDS011;6683;48.506;9.050;2023-07-29T14:50:21;1.35;;;1.25;;
13234;SDS011;6683;48.506;9.050;2023-07-29T14:53:23;1.50;;;1.40;;
13234;SDS011;6683;48.506;9.050;2023-07-29T14:56:27;1.60;;;1.50;;
13234;SDS011;6683;48.506;9.050;2023-07-29T14:59:29;1.45;;;1.35;;
13234;SDS011;6683;48.506;9.050;2023-07-29T15:02:32;1.55;;;1.45;;
13234;SDS011;6683;48.506;9.050;2023-07-29T15:05:34;1.60;;;1.50;;
13234;SDS011;6683;48.506;9.050;2023-07-29T15:08:36;1.33;;;1.23;;
13234;SDS011;6683;48.506;9.050;2023-07-29T15:11:39;1.75;;;1.35;;
13234;SDS011;6683;48.506;9.050;2023-07-29T15:14:42;1.40;;;1.30;;
13234;SDS011;6683;48.506;9.050;2023-07-29T15:17:44;1.50;;;1.40;;
13234;SDS011;6683;48.506;9.050;2023-07-29T15:20:46;1.45;;;1.35;;
13234;SDS011;6683;48.506;9.050;2023-07-29T15:23:48;2.55;;;1.52;;
13234;SDS011;6683;48.506;9.050;2023-07-29T15:26:52;1.60;;;1.50;;
13234;SDS011;6683;48.506;9.050;2023-07-29T15:29:54;1.75;;;1.65;;
13234;SDS011;6683;48.506;9.050;2023-07-29T15:32:57;2.08;;;1.60;;
13234;SDS011;6683;48.506;9.050;2023-07-29T15:35:59;1.60;;;1.50;;
13234;SDS011;6683;48.506;9.050;2023-07-29T15:39:02;2.47;;;1.70;;
13234;SDS011;6683;48.506;9.050;2023-07-29T15:42:05;1.63;;;1.50;;
13234;SDS011;6683;48.506;9.050;2023-07-29T15:45:09;2.28;;;1.73;;
13234;SDS011;6683;48.506;9.050;2023-07-29T15:48:12;1.60;;;1.50;;
13234;SDS011;6683;48.506;9.050;2023-07-29T15:51:14;1.70;;;1.60;;
13234;SDS011;6683;48.506;9.050;2023-07-29T15:54:16;1.70;;;1.58;;
13234;SDS011;6683;48.506;9.050;2023-07-29T15:57:20;2.00;;;1.63;;
13234;SDS011;6683;48.506;9.050;2023-07-29T16:00:22;2.25;;;1.50;;
13234;SDS011;6683;48.506;9.050;2023-07-29T16:03:25;1.67;;;1.58;;
13234;SDS011;6683;48.506;9.050;2023-07-29T16:06:27;1.65;;;1.38;;
13234;SDS011;6683;48.506;9.050;2023-07-29T16:09:29;1.60;;;1.50;;
13234;SDS011;6683;48.506;9.050;2023-07-29T16:12:34;1.50;;;1.40;;
13234;SDS011;6683;48.506;9.050;2023-07-29T16:15:38;1.55;;;1.45;;
13234;SDS011;6683;48.506;9.050;2023-07-29T16:18:42;1.40;;;1.30;;
13234;SDS011;6683;48.506;9.050;2023-07-29T16:21:44;1.48;;;1.38;;
13234;SDS011;6683;48.506;9.050;2023-07-29T16:24:46;1.85;;;1.38;;
13234;SDS011;6683;48.506;9.050;2023-07-29T16:27:50;2.40;;;1.50;;
13234;SDS011;6683;48.506;9.050;2023-07-29T16:30:56;1.80;;;1.70;;
13234;SDS011;6683;48.506;9.050;2023-07-29T16:33:58;1.60;;;1.50;;
13234;SDS011;6683;48.506;9.050;2023-07-29T16:37:00;1.40;;;1.30;;
13234;SDS011;6683;48.506;9.050;2023-07-29T16:40:03;1.20;;;1.05;;
13234;SDS011;6683;48.506;9.050;2023-07-29T16:43:08;1.50;;;1.40;;
13234;SDS011;6683;48.506;9.050;2023-07-29T16:46:10;2.35;;;1.50;;
13234;SDS011;6683;48.506;9.050;2023-07-29T16:49:13;2.28;;;1.48;;
13234;SDS011;6683;48.506;9.050;2023-07-29T16:52:15;1.65;;;1.55;;
13234;SDS011;6683;48.506;9.050;2023-07-29T16:55:17;1.75;;;1.50;;
13234;SDS011;6683;48.506;9.050;2023-07-29T16:58:21;2.28;;;1.85;;
13234;SDS011;6683;48.506;9.050;2023-07-29T17:01:23;1.50;;;1.40;;
13234;SDS011;6683;48.506;9.050;2023-07-29T17:04:26;1.50;;;1.40;;
13234;SDS011;6683;48.506;9.050;2023-07-29T17:07:28;1.75;;;1.65;;
13234;SDS011;6683;48.506;9.050;2023-07-29T17:10:31;2.00;;;1.65;;
13234;SDS011;6683;48.506;9.050;2023-07-29T17:13:34;2.33;;;1.58;;
13234;SDS011;6683;48.506;9.050;2023-07-29T17:16:39;1.80;;;1.65;;
13234;SDS011;6683;48.506;9.050;2023-07-29T17:19:42;1.80;;;1.60;;
13234;SDS011;6683;48.506;9.050;2023-07-29T17:22:44;3.25;;;1.65;;
13234;SDS011;6683;48.506;9.050;2023-07-29T17:25:47;2.50;;;1.80;;
13234;SDS011;6683;48.506;9.050;2023-07-29T17:28:51;3.75;;;1.85;;
13234;SDS011;6683;48.506;9.050;2023-07-29T17:31:53;2.30;;;2.00;;
13234;SDS011;6683;48.506;9.050;2023-07-29T17:34:55;2.10;;;1.58;;
13234;SDS011;6683;48.506;9.050;2023-07-29T17:37:57;2.13;;;1.70;;
13234;SDS011;6683;48.506;9.050;2023-07-29T17:40:59;1.70;;;1.60;;
13234;SDS011;6683;48.506;9.050;2023-07-29T17:44:03;2.28;;;1.80;;
13234;SDS011;6683;48.506;9.050;2023-07-29T17:47:06;1.67;;;1.50;;
13234;SDS011;6683;48.506;9.050;2023-07-29T17:50:08;3.88;;;2.15;;
13234;SDS011;6683;48.506;9.050;2023-07-29T17:53:11;2.10;;;1.75;;
13234;SDS011;6683;48.506;9.050;2023-07-29T17:56:13;2.10;;;1.90;;
13234;SDS011;6683;48.506;9.050;2023-07-29T17:59:17;2.10;;;1.80;;
13234;SDS011;6683;48.506;9.050;2023-07-29T18:02:19;1.75;;;1.65;;
13234;SDS011;6683;48.506;9.050;2023-07-29T18:05:22;2.78;;;2.00;;
13234;SDS011;6683;48.506;9.050;2023-07-29T18:08:24;2.73;;;2.03;;
13234;SDS011;6683;48.506;9.050;2023-07-29T18:11:26;2.30;;;2.10;;
13234;SDS011;6683;48.506;9.050;2023-07-29T18:14:30;2.28;;;1.85;;
13234;SDS011;6683;48.506;9.050;2023-07-29T18:17:32;3.72;;;2.55;;
13234;SDS011;6683;48.506;9.050;2023-07-29T18:20:34;2.05;;;1.92;;
13234;SDS011;6683;48.506;9.050;2023-07-29T18:23:37;2.50;;;2.30;;
13234;SDS011;6683;48.506;9.050;2023-07-29T18:26:39;2.75;;;2.15;;
13234;SDS011;6683;48.506;9.050;2023-07-29T18:29:43;3.63;;;2.60;;
13234;SDS011;6683;48.506;9.050;2023-07-29T18:32:45;3.13;;;2.75;;
13234;SDS011;6683;48.506;9.050;2023-07-29T18:35:48;3.20;;;2.80;;
13234;SDS011;6683;48.506;9.050;2023-07-29T18:38:50;3.93;;;2.93;;
13234;SDS011;6683;48.506;9.050;2023-07-29T18:41:52;3.00;;;2.70;;
13234;SDS011;6683;48.506;9.050;2023-07-29T18:44:56;3.53;;;2.78;;
13234;SDS011;6683;48.506;9.050;2023-07-29T18:47:59;2.50;;;2.30;;